Time;durP1;ratioP1;P1;durP2;ratioP2;P2;SDS_P1;SDS_P2;PMS_P1;PMS_P2;Temp;Humidity;BMP_temperature;BMP_pressure;BME280_temperature;BME280_humidity;BME280_pressure;Samples;Min_cycle;Max_cycle;Signal;HPM_P1;HPM_P2
2021/06/13 00:00:10;;;;;;;31.33;29.33;;;19.80;70.60;;;;;;5074109;28;20598;-77
2021/06/13 00:02:37;;;;;;;30.97;29.07;;;19.70;70.70;;;;;;5071535;28;20472;-77
2021/06/13 00:05:05;;;;;;;30.37;28.47;;;19.70;70.70;;;;;;5072273;28;20540;-77
2021/06/13 00:07:31;;;;;;;31.80;29.70;;;19.70;70.50;;;;;;5075765;28;20457;-76
2021/06/13 00:09:58;;;;;;;31.13;29.20;;;19.70;70.30;;;;;;5077202;28;21250;-77
2021/06/13 00:12:25;;;;;;;31.63;29.60;;;19.70;70.50;;;;;;5070105;28;20464;-76
2021/06/13 00:14:53;;;;;;;32.00;29.67;;;19.70;70.40;;;;;;5075399;28;20457;-77
2021/06/13 00:17:19;;;;;;;30.87;29.03;;;19.70;70.50;;;;;;5075168;28;20464;-77
2021/06/13 00:19:46;;;;;;;30.60;28.60;;;19.70;70.50;;;;;;5074945;28;20450;-76
2021/06/13 00:22:12;;;;;;;31.20;29.20;;;19.70;70.70;;;;;;5068223;28;20468;-76
2021/06/13 00:24:38;;;;;;;30.83;28.90;;;19.70;70.20;;;;;;5073283;28;20481;-77
2021/06/13 00:27:05;;;;;;;30.60;28.70;;;19.70;70.10;;;;;;5076613;28;20449;-77
2021/06/13 00:29:31;;;;;;;30.63;28.50;;;19.80;69.80;;;;;;5071088;28;20469;-77
2021/06/13 00:31:59;;;;;;;30.53;28.63;;;19.80;69.80;;;;;;5069458;28;20473;-76
2021/06/13 00:34:26;;;;;;;30.97;29.17;;;19.80;69.70;;;;;;5070893;28;20480;-77
2021/06/13 00:36:53;;;;;;;31.97;29.87;;;19.80;69.60;;;;;;5069827;28;21230;-77
2021/06/13 00:39:20;;;;;;;31.23;29.17;;;19.90;68.70;;;;;;5063734;28;20454;-77
2021/06/13 00:41:46;;;;;;;31.80;29.80;;;19.70;68.90;;;;;;5069677;28;20959;-77
2021/06/13 00:44:13;;;;;;;32.20;30.20;;;19.70;69.00;;;;;;5069969;28;20599;-76
2021/06/13 00:46:40;;;;;;;32.67;30.27;;;19.70;69.00;;;;;;5075177;28;20465;-77
2021/06/13 00:49:08;;;;;;;31.20;29.20;;;19.60;69.00;;;;;;5085321;28;20485;-76
2021/06/13 00:51:35;;;;;;;32.10;29.97;;;19.40;69.70;;;;;;5083904;28;20946;-76
2021/06/13 00:54:01;;;;;;;31.63;29.53;;;19.30;70.20;;;;;;5082184;28;20477;-76
2021/06/13 00:56:28;;;;;;;31.03;29.03;;;19.40;70.00;;;;;;5079379;28;20465;-76
2021/06/13 00:58:55;;;;;;;32.57;30.47;;;19.40;69.90;;;;;;5078241;28;20511;-75
2021/06/13 01:01:21;;;;;;;31.20;29.20;;;19.50;69.80;;;;;;5074922;28;20468;-76
2021/06/13 01:03:48;;;;;;;30.87;28.93;;;19.40;70.00;;;;;;5076391;28;20481;-75
2021/06/13 01:06:21;;;;;;;31.70;29.53;;;19.50;69.90;;;;;;5077589;28;20491;-76
2021/06/13 01:08:52;;;;;;;31.70;29.70;;;19.40;69.90;;;;;;5082235;28;20482;-76
2021/06/13 01:11:28;;;;;;;32.33;30.27;;;19.30;70.40;;;;;;5074672;28;20450;-76
2021/06/13 01:14:01;;;;;;;32.07;30.03;;;19.30;70.00;;;;;;5081236;28;21063;-75
2021/06/13 01:16:34;;;;;;;31.50;29.27;;;19.30;70.30;;;;;;5078450;28;20456;-75
2021/06/13 01:19:03;;;;;;;32.80;30.40;;;19.30;70.40;;;;;;5078387;28;20628;-76
2021/06/13 01:21:35;;;;;;;32.57;30.07;;;19.20;70.60;;;;;;5081087;28;20450;-76
2021/06/13 01:24:21;;;;;;;32.10;30.00;;;19.20;70.40;;;;;;5079517;28;20577;-75
2021/06/13 01:27:16;;;;;;;31.83;29.67;;;19.20;70.80;;;;;;5078739;28;20543;-76
2021/06/13 01:29:45;;;;;;;32.17;30.00;;;19.10;71.10;;;;;;5074357;28;20477;-76
2021/06/13 01:32:18;;;;;;;31.20;29.20;;;19.10;70.50;;;;;;5078094;28;20464;-75
2021/06/13 01:34:48;;;;;;;32.17;30.07;;;19.20;70.40;;;;;;5075641;28;20500;-75
2021/06/13 01:37:17;;;;;;;31.40;29.50;;;19.20;69.90;;;;;;5079802;28;20511;-76
2021/06/13 01:39:47;;;;;;;31.20;29.20;;;19.20;70.20;;;;;;5082407;28;20476;-75
2021/06/13 01:42:15;;;;;;;31.07;29.07;;;19.20;70.00;;;;;;5082998;28;20445;-76
2021/06/13 01:44:45;;;;;;;31.10;29.10;;;19.10;70.10;;;;;;5077766;28;21155;-76
2021/06/13 01:47:12;;;;;;;31.20;29.17;;;19.10;69.80;;;;;;5075221;28;20468;-75
2021/06/13 01:49:40;;;;;;;31.70;29.60;;;19.10;69.30;;;;;;5080462;28;20579;-76
2021/06/13 01:52:08;;;;;;;32.40;30.20;;;18.90;70.10;;;;;;5079053;28;20990;-76
2021/06/13 01:54:34;;;;;;;32.23;30.13;;;18.80;70.70;;;;;;5077643;28;20582;-76
2021/06/13 01:57:01;;;;;;;31.67;29.57;;;18.80;70.60;;;;;;5075086;28;21197;-75
2021/06/13 01:59:28;;;;;;;31.27;29.20;;;18.90;70.60;;;;;;5074607;28;20977;-76
2021/06/13 02:01:58;;;;;;;32.30;30.03;;;18.90;70.20;;;;;;5069399;28;20458;-75
2021/06/13 02:04:27;;;;;;;32.37;30.17;;;18.80;70.60;;;;;;5072585;28;20557;-76
2021/06/13 02:06:57;;;;;;;32.23;30.23;;;18.80;70.80;;;;;;5073733;28;20461;-75
2021/06/13 02:09:24;;;;;;;33.83;31.53;;;18.90;70.50;;;;;;5073266;28;20851;-76
2021/06/13 02:11:54;;;;;;;31.50;29.40;;;18.80;70.90;;;;;;5074971;28;20457;-76
2021/06/13 02:14:22;;;;;;;31.57;29.47;;;18.80;70.90;;;;;;5074447;28;20480;-76
2021/06/13 02:16:49;;;;;;;31.23;29.10;;;18.90;70.80;;;;;;5076157;28;20458;-76
2021/06/13 02:19:19;;;;;;;31.43;29.43;;;19.00;70.80;;;;;;5075950;28;20553;-76
2021/06/13 02:21:47;;;;;;;31.90;30.00;;;19.00;70.70;;;;;;5066032;28;20852;-76
2021/06/13 02:24:16;;;;;;;30.57;28.43;;;19.00;71.40;;;;;;5073146;28;20855;-75
2021/06/13 02:26:44;;;;;;;30.73;28.77;;;19.00;71.20;;;;;;5074368;28;21222;-76
2021/06/13 02:29:11;;;;;;;30.37;28.17;;;19.10;71.00;;;;;;5074884;28;21299;-76
2021/06/13 02:31:41;;;;;;;31.33;29.10;;;19.20;70.60;;;;;;5070142;28;21393;-75
2021/06/13 02:34:09;;;;;;;30.63;28.53;;;19.20;70.60;;;;;;5071689;28;20470;-76
2021/06/13 02:36:38;;;;;;;30.27;28.47;;;19.20;70.30;;;;;;5077742;28;20483;-76
2021/06/13 02:39:07;;;;;;;30.67;28.70;;;19.10;70.40;;;;;;5066598;28;20455;-75
2021/06/13 02:41:34;;;;;;;31.60;28.80;;;19.00;70.50;;;;;;5072365;28;20585;-76
2021/06/13 02:44:01;;;;;;;30.27;28.33;;;19.10;70.20;;;;;;5075643;28;20487;-75
2021/06/13 02:46:27;;;;;;;31.83;29.80;;;19.10;70.30;;;;;;5074425;28;20465;-75
2021/06/13 02:48:53;;;;;;;30.53;28.33;;;19.10;70.10;;;;;;5076241;28;20482;-76
2021/06/13 02:51:23;;;;;;;30.50;28.40;;;19.10;70.00;;;;;;5071884;28;20464;-75
2021/06/13 02:53:56;;;;;;;30.63;28.73;;;19.10;69.80;;;;;;5075774;28;20572;-76
2021/06/13 02:56:29;;;;;;;30.30;28.40;;;19.10;68.40;;;;;;5075906;28;20501;-75
2021/06/13 02:59:03;;;;;;;31.57;29.40;;;19.00;68.10;;;;;;5077732;28;20450;-75
2021/06/13 03:01:31;;;;;;;29.43;27.50;;;19.10;67.80;;;;;;5075779;28;20453;-76
2021/06/13 03:03:59;;;;;;;29.73;28.00;;;19.10;68.10;;;;;;5069868;28;20473;-76
2021/06/13 03:06:26;;;;;;;32.20;29.90;;;18.90;68.10;;;;;;5073218;28;20490;-75
2021/06/13 03:08:54;;;;;;;30.73;28.80;;;18.80;68.50;;;;;;5073193;28;20479;-76
2021/06/13 03:11:21;;;;;;;30.77;28.97;;;18.80;68.90;;;;;;5074509;28;20462;-75
2021/06/13 03:13:49;;;;;;;30.67;28.87;;;18.60;68.80;;;;;;5063065;28;20481;-75
2021/06/13 03:16:16;;;;;;;31.87;29.70;;;18.50;69.40;;;;;;5071887;28;20454;-76
2021/06/13 03:18:46;;;;;;;31.17;29.17;;;18.50;69.80;;;;;;5073044;28;20970;-75
2021/06/13 03:21:13;;;;;;;30.50;28.80;;;18.60;69.70;;;;;;5072128;28;20603;-76
2021/06/13 03:23:41;;;;;;;31.07;29.10;;;18.70;69.60;;;;;;5072511;28;21194;-76
2021/06/13 03:26:10;;;;;;;30.57;28.73;;;18.60;69.90;;;;;;5074846;28;21002;-76
2021/06/13 03:28:38;;;;;;;30.10;28.40;;;18.60;69.70;;;;;;5077581;28;20469;-76
2021/06/13 03:31:05;;;;;;;31.00;28.73;;;18.50;70.00;;;;;;5070989;28;21160;-76
2021/06/13 03:33:34;;;;;;;31.57;29.47;;;18.50;70.30;;;;;;5065341;28;20547;-76
2021/06/13 03:36:02;;;;;;;31.50;29.40;;;18.40;70.30;;;;;;5073790;28;20991;-75
2021/06/13 03:38:30;;;;;;;30.77;28.87;;;18.20;70.60;;;;;;5069398;28;20459;-76
2021/06/13 03:40:59;;;;;;;30.40;28.20;;;18.20;70.80;;;;;;5068054;28;21632;-75
2021/06/13 03:43:28;;;;;;;30.93;28.87;;;18.40;70.30;;;;;;5071484;28;20479;-75
2021/06/13 03:45:55;;;;;;;32.90;30.53;;;18.50;69.90;;;;;;5072838;28;20637;-75
2021/06/13 03:48:24;;;;;;;30.67;28.80;;;18.60;69.50;;;;;;5070200;28;20454;-75
2021/06/13 03:50:51;;;;;;;32.00;29.70;;;18.50;69.40;;;;;;5072697;28;20485;-75
2021/06/13 03:53:21;;;;;;;31.80;29.90;;;18.40;70.00;;;;;;5066073;28;20482;-75
2021/06/13 03:55:49;;;;;;;31.13;29.23;;;18.40;69.70;;;;;;5072391;28;20475;-75
2021/06/13 03:58:17;;;;;;;31.30;29.03;;;18.40;69.30;;;;;;5073150;28;20488;-75
2021/06/13 04:00:47;;;;;;;29.90;27.87;;;18.20;69.50;;;;;;5072744;28;20463;-75
2021/06/13 04:03:16;;;;;;;30.10;28.13;;;18.10;69.80;;;;;;5064183;28;20482;-75
2021/06/13 04:05:45;;;;;;;29.57;27.77;;;18.00;70.10;;;;;;5070855;28;20456;-75
2021/06/13 04:08:14;;;;;;;30.10;28.17;;;18.00;70.20;;;;;;5070230;28;20464;-75
2021/06/13 04:10:42;;;;;;;30.10;28.17;;;17.80;70.30;;;;;;5069094;28;20476;-75
2021/06/13 04:13:12;;;;;;;29.97;28.17;;;17.60;70.90;;;;;;5069927;28;20490;-75
2021/06/13 04:15:40;;;;;;;31.30;29.30;;;17.80;70.60;;;;;;5071484;28;20523;-75
2021/06/13 04:18:09;;;;;;;29.93;27.97;;;17.80;70.50;;;;;;5073264;28;20826;-75
2021/06/13 04:20:37;;;;;;;29.80;27.90;;;17.90;70.50;;;;;;5075468;28;20456;-75
2021/06/13 04:23:05;;;;;;;29.80;27.80;;;17.90;70.20;;;;;;5068620;28;20485;-75
2021/06/13 04:25:33;;;;;;;29.57;27.57;;;17.90;69.90;;;;;;5069320;28;20467;-75
2021/06/13 04:28:01;;;;;;;29.50;27.33;;;18.00;69.90;;;;;;5075035;28;20461;-75
2021/06/13 04:30:28;;;;;;;30.37;28.07;;;17.90;70.10;;;;;;5072768;28;20504;-75
2021/06/13 04:32:55;;;;;;;28.77;27.00;;;18.10;69.70;;;;;;5069993;28;20477;-75
2021/06/13 04:35:23;;;;;;;29.83;27.70;;;18.20;69.50;;;;;;5067156;28;20462;-75
2021/06/13 04:37:50;;;;;;;29.47;27.60;;;18.00;69.60;;;;;;5066828;28;20483;-75
2021/06/13 04:40:17;;;;;;;30.43;28.23;;;17.90;70.20;;;;;;5071043;28;20539;-75
2021/06/13 04:42:44;;;;;;;31.67;29.20;;;17.80;70.40;;;;;;5073115;28;20491;-75
2021/06/13 04:45:12;;;;;;;30.90;28.50;;;17.90;69.80;;;;;;5068092;28;20460;-75
2021/06/13 04:47:39;;;;;;;29.93;27.83;;;18.10;69.70;;;;;;5072742;28;20465;-75
2021/06/13 04:50:08;;;;;;;30.00;28.03;;;18.20;69.40;;;;;;5069928;28;20486;-75
2021/06/13 04:52:38;;;;;;;30.47;28.37;;;18.20;69.30;;;;;;5070877;28;21094;-75
2021/06/13 04:55:25;;;;;;;30.23;28.03;;;18.10;69.40;;;;;;5072146;28;20467;-75
2021/06/13 04:58:02;;;;;;;31.03;28.60;;;18.20;69.20;;;;;;5072001;28;20467;-75
2021/06/13 05:00:29;;;;;;;30.80;28.90;;;18.10;69.40;;;;;;5077642;28;20815;-76
2021/06/13 05:02:55;;;;;;;29.60;27.50;;;18.20;69.40;;;;;;5074046;28;20488;-76
2021/06/13 05:05:22;;;;;;;29.30;27.60;;;18.20;69.50;;;;;;5072121;28;21108;-75
2021/06/13 05:07:51;;;;;;;29.13;27.07;;;18.20;69.50;;;;;;5069458;28;20457;-75
2021/06/13 05:10:17;;;;;;;29.40;27.60;;;18.30;68.90;;;;;;5069192;28;20531;-75
2021/06/13 05:12:49;;;;;;;28.90;27.00;;;18.30;69.00;;;;;;5072936;28;20479;-75
2021/06/13 05:15:17;;;;;;;29.90;27.60;;;18.20;69.10;;;;;;5077085;28;20480;-75
2021/06/13 05:17:44;;;;;;;29.57;27.33;;;18.40;68.90;;;;;;5069531;28;20468;-75
2021/06/13 05:20:13;;;;;;;29.93;27.80;;;18.50;67.80;;;;;;5063667;28;20462;-75
2021/06/13 05:22:55;;;;;;;28.37;26.37;;;18.50;68.10;;;;;;5076009;28;20477;-76
2021/06/13 05:25:23;;;;;;;29.80;27.80;;;18.60;68.20;;;;;;5070659;28;20454;-75
2021/06/13 05:27:50;;;;;;;28.80;26.63;;;18.60;67.70;;;;;;5074171;28;20591;-75
2021/06/13 05:30:18;;;;;;;29.53;27.60;;;18.40;68.10;;;;;;5072202;28;20484;-75
2021/06/13 05:32:44;;;;;;;29.40;27.23;;;18.30;68.50;;;;;;5070167;28;20481;-75
2021/06/13 05:35:12;;;;;;;29.43;27.10;;;18.30;68.60;;;;;;5072848;28;20457;-75
2021/06/13 05:37:39;;;;;;;29.13;27.30;;;18.50;68.10;;;;;;5070975;28;20461;-75
2021/06/13 05:40:10;;;;;;;28.83;26.77;;;18.50;68.40;;;;;;5069582;28;20468;-75
2021/06/13 05:42:37;;;;;;;27.90;26.23;;;18.60;67.80;;;;;;5071469;28;20453;-75
2021/06/13 05:45:05;;;;;;;29.50;27.40;;;18.70;67.40;;;;;;5065848;28;20491;-75
2021/06/13 05:47:32;;;;;;;28.13;26.33;;;18.90;65.50;;;;;;5074695;28;20454;-75
2021/06/13 05:49:59;;;;;;;27.33;25.63;;;18.90;66.00;;;;;;5075547;28;20484;-75
2021/06/13 05:52:26;;;;;;;27.97;26.13;;;18.90;65.80;;;;;;5071351;28;20467;-75
2021/06/13 05:54:57;;;;;;;28.90;26.60;;;18.80;65.80;;;;;;5075159;28;20467;-75
2021/06/13 05:57:30;;;;;;;27.70;26.07;;;18.90;65.70;;;;;;5074930;28;21245;-75
2021/06/13 06:00:00;;;;;;;28.10;26.00;;;18.80;65.90;;;;;;5081378;28;20550;-77
2021/06/13 06:02:27;;;;;;;28.23;26.47;;;19.00;65.60;;;;;;5077602;28;22510;-77
2021/06/13 06:04:54;;;;;;;28.17;26.47;;;19.00;64.70;;;;;;5074759;28;20453;-80
2021/06/13 06:07:22;;;;;;;31.03;29.13;;;18.90;65.50;;;;;;5074152;28;20453;-76
2021/06/13 06:09:48;;;;;;;28.73;26.83;;;18.90;66.00;;;;;;5073555;28;20473;-77
2021/06/13 06:12:16;;;;;;;29.10;27.37;;;18.90;66.10;;;;;;5074456;28;20465;-76
2021/06/13 06:14:46;;;;;;;28.57;26.73;;;19.00;65.50;;;;;;5075576;28;20569;-76
2021/06/13 06:17:13;;;;;;;29.40;27.40;;;18.90;65.60;;;;;;5074416;28;20457;-76
2021/06/13 06:19:41;;;;;;;29.23;27.23;;;19.10;65.70;;;;;;5075264;28;20454;-77
2021/06/13 06:22:08;;;;;;;29.10;27.27;;;19.10;65.00;;;;;;5075580;28;20576;-76
2021/06/13 06:24:38;;;;;;;30.70;28.43;;;18.90;66.10;;;;;;5076713;28;21146;-76
2021/06/13 06:27:06;;;;;;;28.53;26.63;;;19.00;65.80;;;;;;5055806;28;21258;-76
2021/06/13 06:29:33;;;;;;;29.63;27.43;;;19.20;64.60;;;;;;5078031;28;20453;-76
2021/06/13 06:32:02;;;;;;;30.40;28.13;;;19.10;64.50;;;;;;5077852;28;20457;-76
2021/06/13 06:34:29;;;;;;;28.23;26.53;;;19.20;64.70;;;;;;5068371;28;21261;-76
2021/06/13 06:36:56;;;;;;;29.20;27.47;;;19.30;64.50;;;;;;5071846;28;20571;-77
2021/06/13 06:39:23;;;;;;;29.23;27.47;;;19.30;64.40;;;;;;5076061;28;20772;-77
2021/06/13 06:41:50;;;;;;;29.57;27.43;;;19.40;64.30;;;;;;5073186;28;21311;-76
2021/06/13 06:44:17;;;;;;;30.30;28.30;;;19.30;64.60;;;;;;5074602;28;20477;-77
2021/06/13 06:46:44;;;;;;;29.47;27.77;;;19.30;64.60;;;;;;5077679;28;20461;-77
2021/06/13 06:49:13;;;;;;;29.50;27.30;;;19.20;65.20;;;;;;5077859;28;20461;-76
2021/06/13 06:51:40;;;;;;;28.13;26.43;;;19.30;64.60;;;;;;5073194;28;20484;-76
2021/06/13 06:54:07;;;;;;;28.30;26.60;;;19.40;64.80;;;;;;5078050;28;20495;-77
2021/06/13 06:56:34;;;;;;;28.47;26.77;;;19.30;64.40;;;;;;5069887;28;20453;-78
2021/06/13 06:59:01;;;;;;;28.17;26.47;;;19.30;64.80;;;;;;5071659;28;20548;-80
2021/06/13 07:01:28;;;;;;;29.57;27.70;;;19.30;64.60;;;;;;5071129;28;20507;-76
2021/06/13 07:03:55;;;;;;;28.53;26.70;;;19.30;65.10;;;;;;5075872;28;20487;-76
2021/06/13 07:06:30;;;;;;;28.20;26.50;;;19.30;64.60;;;;;;5081390;28;20560;-77
2021/06/13 07:08:57;;;;;;;28.93;27.13;;;19.30;63.90;;;;;;5072317;28;20448;-77
2021/06/13 07:11:24;;;;;;;30.00;27.80;;;19.20;64.50;;;;;;5078301;28;20487;-77
2021/06/13 07:13:51;;;;;;;28.97;27.07;;;19.30;64.60;;;;;;5071775;28;20474;-77
2021/06/13 07:16:18;;;;;;;29.27;27.20;;;19.40;64.10;;;;;;5068768;28;20577;-78
2021/06/13 07:18:45;;;;;;;30.37;28.40;;;19.50;63.70;;;;;;5081553;28;20461;-77
2021/06/13 07:21:12;;;;;;;29.80;27.80;;;19.60;63.30;;;;;;5073671;28;20482;-77
2021/06/13 07:23:40;;;;;;;28.13;26.43;;;19.70;62.60;;;;;;5074065;28;20986;-76
2021/06/13 07:26:07;;;;;;;29.47;27.30;;;19.60;63.30;;;;;;5071728;28;20473;-78
2021/06/13 07:28:34;;;;;;;28.20;26.50;;;19.60;63.60;;;;;;5074732;28;20460;-77
2021/06/13 07:31:02;;;;;;;30.00;27.40;;;19.70;63.40;;;;;;5076252;28;20481;-76
2021/06/13 07:33:29;;;;;;;29.30;27.50;;;19.80;63.60;;;;;;5071035;28;20476;-77
2021/06/13 07:35:57;;;;;;;30.10;28.07;;;19.60;63.60;;;;;;5072089;28;20584;-77
2021/06/13 07:38:24;;;;;;;30.37;28.37;;;19.50;64.50;;;;;;5077127;28;20461;-78
2021/06/13 07:40:53;;;;;;;31.40;28.80;;;19.60;64.20;;;;;;5075304;28;20453;-78
2021/06/13 07:43:20;;;;;;;28.50;26.80;;;19.60;64.10;;;;;;5077160;28;20480;-77
2021/06/13 07:45:47;;;;;;;30.77;28.53;;;19.70;64.00;;;;;;5065900;28;20542;-76
2021/06/13 07:48:14;;;;;;;30.70;28.50;;;19.70;63.90;;;;;;5076931;28;20523;-77
2021/06/13 07:50:42;;;;;;;28.93;26.80;;;19.90;63.80;;;;;;5070688;28;20487;-77
2021/06/13 07:53:09;;;;;;;28.90;27.00;;;19.90;63.50;;;;;;5075303;28;20515;-76
2021/06/13 07:55:36;;;;;;;29.30;27.20;;;20.10;63.60;;;;;;5071301;28;20550;-77
2021/06/13 07:58:05;;;;;;;28.90;27.00;;;20.30;62.40;;;;;;5073813;28;20464;-76
2021/06/13 08:00:34;;;;;;;31.13;29.30;;;20.40;62.40;;;;;;5071984;28;20824;-75
2021/06/13 08:03:02;;;;;;;29.87;27.90;;;20.50;61.90;;;;;;5069242;28;20492;-76
2021/06/13 08:05:29;;;;;;;29.97;27.97;;;20.50;61.90;;;;;;5072918;28;20467;-77
2021/06/13 08:08:01;;;;;;;28.50;26.70;;;20.30;62.50;;;;;;5074054;28;20518;-77
2021/06/13 08:10:29;;;;;;;29.10;27.00;;;20.20;62.50;;;;;;5076105;28;20982;-75
2021/06/13 08:12:57;;;;;;;28.57;26.57;;;20.00;62.70;;;;;;5071283;28;20759;-76
2021/06/13 08:15:26;;;;;;;28.07;26.37;;;20.00;63.20;;;;;;5066086;28;20466;-76
2021/06/13 08:17:53;;;;;;;28.10;26.20;;;20.10;62.80;;;;;;5074043;28;20476;-76
2021/06/13 08:20:20;;;;;;;28.77;26.93;;;20.10;62.40;;;;;;5072690;28;21157;-76
2021/06/13 08:22:48;;;;;;;28.17;26.57;;;20.20;62.70;;;;;;5068681;28;20487;-76
2021/06/13 08:25:16;;;;;;;29.80;27.50;;;20.30;61.70;;;;;;5067888;28;20448;-76
2021/06/13 08:27:43;;;;;;;28.80;27.03;;;20.20;62.30;;;;;;5065133;28;20465;-76
2021/06/13 08:30:14;;;;;;;29.10;27.17;;;20.10;63.20;;;;;;5076579;28;20453;-76
2021/06/13 08:32:43;;;;;;;30.10;28.00;;;20.20;62.80;;;;;;5070000;28;20582;-76
2021/06/13 08:35:11;;;;;;;30.00;28.10;;;20.10;62.50;;;;;;5075431;28;20453;-76
2021/06/13 08:37:38;;;;;;;28.53;26.73;;;20.20;62.40;;;;;;5069153;28;20477;-75
2021/06/13 08:40:08;;;;;;;28.23;26.37;;;20.30;62.20;;;;;;5069150;28;20836;-75
2021/06/13 08:42:36;;;;;;;28.83;26.63;;;20.10;61.60;;;;;;5069934;28;22097;-73
2021/06/13 08:45:05;;;;;;;28.27;26.17;;;20.20;61.90;;;;;;5075999;28;20457;-74
2021/06/13 08:47:32;;;;;;;28.03;26.33;;;20.30;61.50;;;;;;5069287;28;20462;-75
2021/06/13 08:50:01;;;;;;;28.17;26.27;;;20.30;61.10;;;;;;5074274;28;20470;-77
2021/06/13 08:52:28;;;;;;;27.57;25.67;;;20.20;61.20;;;;;;5065917;28;20489;-75
2021/06/13 08:54:55;;;;;;;29.33;27.33;;;20.30;61.40;;;;;;5075415;28;20457;-75
2021/06/13 08:57:22;;;;;;;29.23;27.37;;;20.50;61.30;;;;;;5069279;28;20463;-75
2021/06/13 08:59:49;;;;;;;30.20;28.10;;;20.50;60.50;;;;;;5072896;28;20469;-76
2021/06/13 09:02:17;;;;;;;28.60;26.97;;;20.50;60.60;;;;;;5067063;28;20458;-75
2021/06/13 09:04:45;;;;;;;28.33;26.53;;;20.60;59.40;;;;;;5071682;28;20487;-75
2021/06/13 09:07:15;;;;;;;28.80;27.10;;;20.60;59.50;;;;;;5073427;28;20649;-75
2021/06/13 09:09:42;;;;;;;29.07;27.30;;;20.60;59.60;;;;;;5078144;28;21018;-75
2021/06/13 09:12:10;;;;;;;27.80;26.10;;;20.80;59.10;;;;;;5075655;28;20607;-75
2021/06/13 09:14:42;;;;;;;28.20;26.50;;;20.90;58.60;;;;;;5083435;28;20507;-75
2021/06/13 09:17:15;;;;;;;28.53;26.73;;;20.70;59.90;;;;;;5069152;28;20465;-75
2021/06/13 09:20:13;;;;;;;29.70;27.80;;;20.60;60.80;;;;;;5076334;28;20452;-76
2021/06/13 09:22:42;;;;;;;28.60;26.80;;;20.80;60.20;;;;;;5032570;28;20481;-73
2021/06/13 09:25:12;;;;;;;28.50;26.80;;;20.70;59.30;;;;;;5078758;28;20467;-75
2021/06/13 09:27:39;;;;;;;27.33;25.63;;;20.70;59.40;;;;;;5079143;28;20534;-75
2021/06/13 09:30:08;;;;;;;27.80;26.10;;;20.90;58.30;;;;;;5080646;28;21210;-75
2021/06/13 09:33:03;;;;;;;29.20;27.50;;;20.90;58.30;;;;;;5074158;28;21054;-75
2021/06/13 09:35:30;;;;;;;28.73;26.80;;;20.80;58.30;;;;;;5077763;28;20467;-75
2021/06/13 09:38:15;;;;;;;27.90;26.10;;;20.80;57.40;;;;;;5076903;28;20461;-75
2021/06/13 09:40:46;;;;;;;28.00;26.27;;;20.90;58.30;;;;;;5079318;28;20457;-75
2021/06/13 09:43:15;;;;;;;28.30;26.60;;;20.90;58.60;;;;;;5083707;28;20477;-77
2021/06/13 09:45:52;;;;;;;29.07;27.33;;;21.00;58.60;;;;;;5075918;28;20460;-75
2021/06/13 09:48:19;;;;;;;28.93;27.20;;;21.10;57.90;;;;;;5078759;28;21249;-77
2021/06/13 09:50:48;;;;;;;27.50;25.80;;;21.10;57.80;;;;;;5082554;28;20552;-75
2021/06/13 09:53:45;;;;;;;29.37;27.57;;;21.10;58.00;;;;;;5077527;28;20481;-75
2021/06/13 09:56:22;;;;;;;29.10;27.20;;;21.20;58.00;;;;;;5067474;28;20461;-75
2021/06/13 10:01:29;;;;;;;31.50;29.77;;;21.30;57.80;;;;;;4978005;23;20818;-75
2021/06/13 10:03:57;;;;;;;28.90;26.80;;;21.30;57.70;;;;;;4962497;28;20530;-75
2021/06/13 10:06:28;;;;;;;28.47;26.73;;;21.60;56.60;;;;;;4961108;28;20477;-75
2021/06/13 10:08:57;;;;;;;28.30;26.60;;;21.60;55.80;;;;;;4961767;28;20549;-75
2021/06/13 10:11:25;;;;;;;29.37;27.33;;;21.30;56.50;;;;;;4959950;28;21001;-75
2021/06/13 10:13:54;;;;;;;27.87;26.07;;;21.20;57.60;;;;;;4961550;28;20586;-75
2021/06/13 10:16:36;;;;;;;28.90;27.00;;;21.10;57.40;;;;;;4960883;28;20988;-75
2021/06/13 10:19:07;;;;;;;28.07;26.37;;;21.30;56.10;;;;;;4961623;28;20459;-75
2021/06/13 10:21:36;;;;;;;29.43;27.73;;;21.30;54.40;;;;;;4984598;28;20467;-75
2021/06/13 10:24:11;;;;;;;27.80;26.20;;;21.40;56.60;;;;;;4961665;28;20717;-75
2021/06/13 10:26:40;;;;;;;28.83;26.93;;;21.40;57.30;;;;;;4961052;28;20892;-75
2021/06/13 10:29:09;;;;;;;29.50;27.70;;;21.40;57.30;;;;;;4962343;28;20850;-75
2021/06/13 10:31:37;;;;;;;27.83;25.93;;;21.50;57.10;;;;;;4961539;28;20867;-75
2021/06/13 10:34:04;;;;;;;26.90;25.40;;;21.60;55.60;;;;;;4960848;28;20863;-75
2021/06/13 10:36:34;;;;;;;28.37;26.37;;;21.70;55.60;;;;;;5011354;28;21002;-75
2021/06/13 10:39:02;;;;;;;27.40;25.70;;;21.70;55.90;;;;;;4960586;28;20485;-75
2021/06/13 10:41:30;;;;;;;27.70;26.00;;;21.50;55.80;;;;;;4996369;28;20556;-75
2021/06/13 10:44:03;;;;;;;27.97;26.07;;;21.50;55.80;;;;;;5029935;28;20481;-75
2021/06/13 10:46:32;;;;;;;27.27;25.47;;;21.70;54.60;;;;;;4960379;28;20984;-75
2021/06/13 10:49:01;;;;;;;27.90;26.20;;;21.80;54.80;;;;;;4962053;28;20581;-75
2021/06/13 10:51:40;;;;;;;28.30;26.60;;;21.80;54.20;;;;;;4963807;28;20783;-75
2021/06/13 10:54:35;;;;;;;28.40;26.53;;;21.90;55.10;;;;;;5034392;28;20509;-75
2021/06/13 10:57:43;;;;;;;30.20;27.93;;;21.90;55.30;;;;;;4978556;28;20871;-75
2021/06/13 11:00:31;;;;;;;26.80;25.30;;;22.00;55.10;;;;;;4960731;28;20880;-75
2021/06/13 11:03:00;;;;;;;29.10;27.30;;;21.80;54.00;;;;;;4960440;28;21034;-75
2021/06/13 11:05:47;;;;;;;30.73;28.83;;;21.90;55.50;;;;;;4963117;28;20983;-75
2021/06/13 11:08:16;;;;;;;28.60;26.70;;;21.90;55.10;;;;;;4953076;28;20550;-75
2021/06/13 11:10:44;;;;;;;28.83;27.10;;;22.00;54.90;;;;;;4961999;28;20515;-75
2021/06/13 11:13:15;;;;;;;28.57;26.87;;;22.10;55.20;;;;;;4961640;28;20513;-75
2021/06/13 11:16:04;;;;;;;28.93;27.17;;;22.10;54.80;;;;;;4960626;28;20458;-75
2021/06/13 11:18:37;;;;;;;29.37;27.57;;;22.00;54.70;;;;;;4954037;28;20562;-75
2021/06/13 11:21:19;;;;;;;27.53;25.60;;;21.90;55.30;;;;;;4979562;28;20516;-75
2021/06/13 11:23:57;;;;;;;28.47;26.70;;;22.00;55.60;;;;;;5062236;28;20935;-75
2021/06/13 11:26:39;;;;;;;27.63;25.77;;;22.20;55.40;;;;;;5003782;28;20537;-75
2021/06/13 11:29:10;;;;;;;28.60;26.70;;;22.10;54.50;;;;;;4961029;28;20562;-75
2021/06/13 11:31:49;;;;;;;26.63;25.00;;;22.20;54.60;;;;;;4974986;28;20474;-75
2021/06/13 11:34:16;;;;;;;27.87;25.93;;;22.20;53.20;;;;;;4961404;28;20483;-75
2021/06/13 11:36:43;;;;;;;26.33;24.73;;;22.40;51.00;;;;;;4959751;28;20469;-75
2021/06/13 11:39:24;;;;;;;27.33;25.70;;;22.60;50.40;;;;;;4960893;28;20463;-75
2021/06/13 11:42:06;;;;;;;28.30;26.60;;;22.60;49.00;;;;;;4960349;28;20459;-75
2021/06/13 11:44:41;;;;;;;30.00;28.10;;;22.60;50.20;;;;;;4960335;28;20505;-75
2021/06/13 11:47:32;;;;;;;28.07;26.37;;;22.70;50.30;;;;;;4957967;28;20959;-76
2021/06/13 11:50:01;;;;;;;27.90;26.30;;;22.80;49.70;;;;;;4952436;28;20450;-74
2021/06/13 11:53:06;;;;;;;27.63;25.90;;;22.90;50.20;;;;;;4961971;28;21016;-78
2021/06/13 11:55:51;;;;;;;28.90;27.10;;;23.20;51.40;;;;;;4959256;28;20519;-78
2021/06/13 11:58:18;;;;;;;27.33;25.80;;;23.40;50.10;;;;;;4953767;28;20466;-78
2021/06/13 12:00:55;;;;;;;28.80;26.93;;;23.30;50.70;;;;;;4959147;28;20505;-78
2021/06/13 12:03:23;;;;;;;32.40;30.50;;;23.20;51.20;;;;;;4951071;28;20516;-78
2021/06/13 12:06:02;;;;;;;27.03;25.40;;;23.20;51.40;;;;;;4955434;28;20461;-78
2021/06/13 12:08:30;;;;;;;26.87;25.20;;;23.10;51.70;;;;;;4953655;28;20458;-78
2021/06/13 12:10:57;;;;;;;27.00;25.30;;;23.30;49.70;;;;;;4958937;28;20554;-78
2021/06/13 12:13:28;;;;;;;30.10;28.40;;;23.30;49.50;;;;;;4963006;28;20490;-78
2021/06/13 12:15:57;;;;;;;26.73;25.13;;;23.40;49.20;;;;;;4958537;28;20462;-78
2021/06/13 12:18:24;;;;;;;28.13;26.53;;;23.60;47.90;;;;;;4963504;28;20992;-78
2021/06/13 12:20:59;;;;;;;28.13;26.53;;;23.60;48.70;;;;;;4960709;28;20470;-78
2021/06/13 12:23:35;;;;;;;26.70;25.20;;;23.60;49.10;;;;;;4964307;28;20489;-78
2021/06/13 12:29:11;;;;;;;27.30;25.50;;;23.50;48.30;;;;;;4970617;28;20460;-78
2021/06/13 12:31:40;;;;;;;27.27;25.67;;;23.60;47.70;;;;;;4960689;28;20510;-79
2021/06/13 12:34:18;;;;;;;26.73;25.00;;;23.70;48.90;;;;;;4969529;28;20493;-77
2021/06/13 12:36:49;;;;;;;26.53;24.93;;;23.70;49.60;;;;;;4956336;28;20573;-78
2021/06/13 12:39:37;;;;;;;29.40;27.70;;;24.00;48.10;;;;;;4958513;28;20466;-79
2021/06/13 12:42:14;;;;;;;27.17;25.20;;;24.00;48.10;;;;;;4966686;28;20878;-79
2021/06/13 12:44:41;;;;;;;27.73;26.07;;;24.00;47.90;;;;;;4960482;28;20486;-76
2021/06/13 12:47:18;;;;;;;28.20;26.50;;;24.00;47.40;;;;;;4961229;28;20473;-81